sensor_id;sensor_type;location;lat;lon;timestamp;P1;durP1;ratioP1;P2;durP2;ratioP2
5977;SDS011;3015;51.390;12.256;2022-11-11T00:03:31;6.90;;;4.95;;
5977;SDS011;3015;51.390;12.256;2022-11-11T00:06:04;6.00;;;5.40;;
5977;SDS011;3015;51.390;12.256;2022-11-11T00:08:32;4.30;;;3.90;;
5977;SDS011;3015;51.390;12.256;2022-11-11T00:10:59;5.27;;;4.37;;
5977;SDS011;3015;51.390;12.256;2022-11-11T00:13:29;6.50;;;4.90;;
5977;SDS011;3015;51.390;12.256;2022-11-11T00:15:56;6.28;;;5.78;;
5977;SDS011;3015;51.390;12.256;2022-11-11T00:18:30;5.18;;;4.78;;
5977;SDS011;3015;51.390;12.256;2022-11-11T00:21:14;6.00;;;5.35;;
5977;SDS011;3015;51.390;12.256;2022-11-11T00:23:58;5.95;;;5.32;;
5977;SDS011;3015;51.390;12.256;2022-11-11T00:26:43;5.85;;;5.03;;
5977;SDS011;3015;51.390;12.256;2022-11-11T00:29:08;6.93;;;5.67;;
5977;SDS011;3015;51.390;12.256;2022-11-11T00:31:34;8.37;;;5.10;;
5977;SDS011;3015;51.390;12.256;2022-11-11T00:34:00;4.80;;;4.40;;
5977;SDS011;3015;51.390;12.256;2022-11-11T00:36:26;5.97;;;4.93;;
5977;SDS011;3015;51.390;12.256;2022-11-11T00:38:51;5.50;;;4.93;;
5977;SDS011;3015;51.390;12.256;2022-11-11T00:41:20;5.57;;;5.07;;
5977;SDS011;3015;51.390;12.256;2022-11-11T00:43:47;5.13;;;4.60;;
5977;SDS011;3015;51.390;12.256;2022-11-11T00:46:14;5.93;;;5.20;;
5977;SDS011;3015;51.390;12.256;2022-11-11T00:48:59;5.75;;;5.10;;
5977;SDS011;3015;51.390;12.256;2022-11-11T00:51:43;6.68;;;4.75;;
5977;SDS011;3015;51.390;12.256;2022-11-11T00:54:09;5.57;;;5.10;;
5977;SDS011;3015;51.390;12.256;2022-11-11T00:56:35;5.07;;;4.78;;
5977;SDS011;3015;51.390;12.256;2022-11-11T00:59:03;5.43;;;4.75;;
5977;SDS011;3015;51.390;12.256;2022-11-11T01:01:33;6.15;;;5.22;;
5977;SDS011;3015;51.390;12.256;2022-11-11T01:03:59;6.68;;;5.13;;
5977;SDS011;3015;51.390;12.256;2022-11-11T01:06:25;7.00;;;6.30;;
5977;SDS011;3015;51.390;12.256;2022-11-11T01:08:52;6.90;;;6.25;;
5977;SDS011;3015;51.390;12.256;2022-11-11T01:11:18;7.80;;;5.60;;
5977;SDS011;3015;51.390;12.256;2022-11-11T01:13:46;6.13;;;5.63;;
5977;SDS011;3015;51.390;12.256;2022-11-11T01:16:12;6.97;;;6.27;;
5977;SDS011;3015;51.390;12.256;2022-11-11T01:18:41;7.30;;;6.40;;
5977;SDS011;3015;51.390;12.256;2022-11-11T01:21:09;9.03;;;6.10;;
5977;SDS011;3015;51.390;12.256;2022-11-11T01:23:53;6.22;;;5.60;;
5977;SDS011;3015;51.390;12.256;2022-11-11T01:26:25;5.80;;;5.20;;
5977;SDS011;3015;51.390;12.256;2022-11-11T01:28:53;5.90;;;5.50;;
5977;SDS011;3015;51.390;12.256;2022-11-11T01:31:20;6.75;;;6.05;;
5977;SDS011;3015;51.390;12.256;2022-11-11T01:33:47;10.23;;;5.80;;
5977;SDS011;3015;51.390;12.256;2022-11-11T01:36:20;6.33;;;5.70;;
5977;SDS011;3015;51.390;12.256;2022-11-11T01:38:48;7.30;;;6.60;;
5977;SDS011;3015;51.390;12.256;2022-11-11T01:41:17;8.25;;;6.70;;
5977;SDS011;3015;51.390;12.256;2022-11-11T01:43:57;9.02;;;5.95;;
5977;SDS011;3015;51.390;12.256;2022-11-11T01:46:37;8.38;;;6.20;;
5977;SDS011;3015;51.390;12.256;2022-11-11T01:54:21;6.60;;;6.10;;
5977;SDS011;3015;51.390;12.256;2022-11-11T01:56:58;8.20;;;5.90;;
5977;SDS011;3015;51.390;12.256;2022-11-11T01:59:28;5.60;;;4.85;;
5977;SDS011;3015;51.390;12.256;2022-11-11T02:01:56;6.50;;;5.45;;
5977;SDS011;3015;51.390;12.256;2022-11-11T02:04:21;8.30;;;5.90;;
5977;SDS011;3015;51.390;12.256;2022-11-11T02:07:07;8.13;;;6.40;;
5977;SDS011;3015;51.390;12.256;2022-11-11T02:09:34;9.25;;;6.22;;
5977;SDS011;3015;51.390;12.256;2022-11-11T02:12:04;6.03;;;5.47;;
5977;SDS011;3015;51.390;12.256;2022-11-11T02:14:52;9.50;;;7.18;;
5977;SDS011;3015;51.390;12.256;2022-11-11T02:17:19;7.05;;;5.68;;
5977;SDS011;3015;51.390;12.256;2022-11-11T02:19:53;8.50;;;6.40;;
5977;SDS011;3015;51.390;12.256;2022-11-11T02:22:26;7.80;;;6.05;;
5977;SDS011;3015;51.390;12.256;2022-11-11T02:24:57;10.07;;;6.30;;
5977;SDS011;3015;51.390;12.256;2022-11-11T02:27:25;8.20;;;6.38;;
5977;SDS011;3015;51.390;12.256;2022-11-11T02:29:54;9.57;;;7.40;;
5977;SDS011;3015;51.390;12.256;2022-11-11T02:32:21;10.70;;;7.07;;
5977;SDS011;3015;51.390;12.256;2022-11-11T02:34:47;9.37;;;6.70;;
5977;SDS011;3015;51.390;12.256;2022-11-11T02:37:13;10.80;;;6.63;;
5977;SDS011;3015;51.390;12.256;2022-11-11T02:39:42;8.88;;;6.28;;
5977;SDS011;3015;51.390;12.256;2022-11-11T02:42:11;7.82;;;7.03;;
5977;SDS011;3015;51.390;12.256;2022-11-11T02:44:38;12.43;;;7.10;;
5977;SDS011;3015;51.390;12.256;2022-11-11T02:47:04;7.63;;;6.77;;
5977;SDS011;3015;51.390;12.256;2022-11-11T02:49:30;10.00;;;6.87;;
5977;SDS011;3015;51.390;12.256;2022-11-11T02:51:56;8.43;;;7.63;;
5977;SDS011;3015;51.390;12.256;2022-11-11T02:54:21;6.93;;;6.23;;
5977;SDS011;3015;51.390;12.256;2022-11-11T02:56:47;8.57;;;6.67;;
5977;SDS011;3015;51.390;12.256;2022-11-11T02:59:31;9.80;;;6.43;;
5977;SDS011;3015;51.390;12.256;2022-11-11T03:01:57;7.00;;;6.33;;
5977;SDS011;3015;51.390;12.256;2022-11-11T03:04:22;7.40;;;6.80;;
5977;SDS011;3015;51.390;12.256;2022-11-11T03:06:48;10.30;;;8.03;;
5977;SDS011;3015;51.390;12.256;2022-11-11T03:09:14;7.40;;;6.60;;
5977;SDS011;3015;51.390;12.256;2022-11-11T03:11:39;9.67;;;7.10;;
5977;SDS011;3015;51.390;12.256;2022-11-11T03:14:05;10.57;;;6.70;;
5977;SDS011;3015;51.390;12.256;2022-11-11T03:16:32;7.68;;;6.50;;
5977;SDS011;3015;51.390;12.256;2022-11-11T03:19:16;7.25;;;6.63;;
5977;SDS011;3015;51.390;12.256;2022-11-11T03:21:42;8.20;;;5.83;;
5977;SDS011;3015;51.390;12.256;2022-11-11T03:24:07;6.67;;;5.70;;
5977;SDS011;3015;51.390;12.256;2022-11-11T03:26:33;6.93;;;5.77;;
5977;SDS011;3015;51.390;12.256;2022-11-11T03:28:59;6.93;;;6.33;;
5977;SDS011;3015;51.390;12.256;2022-11-11T03:31:25;6.63;;;6.03;;
5977;SDS011;3015;51.390;12.256;2022-11-11T03:33:50;6.33;;;5.43;;
5977;SDS011;3015;51.390;12.256;2022-11-11T03:36:16;8.87;;;6.70;;
5977;SDS011;3015;51.390;12.256;2022-11-11T03:38:42;9.67;;;6.20;;
5977;SDS011;3015;51.390;12.256;2022-11-11T03:41:07;9.30;;;5.70;;
5977;SDS011;3015;51.390;12.256;2022-11-11T03:43:33;6.40;;;5.83;;
5977;SDS011;3015;51.390;12.256;2022-11-11T03:46:02;6.88;;;6.28;;
5977;SDS011;3015;51.390;12.256;2022-11-11T03:48:31;6.07;;;4.90;;
5977;SDS011;3015;51.390;12.256;2022-11-11T03:50:58;6.35;;;5.75;;
5977;SDS011;3015;51.390;12.256;2022-11-11T03:53:23;7.43;;;6.30;;
5977;SDS011;3015;51.390;12.256;2022-11-11T03:55:49;6.10;;;5.60;;
5977;SDS011;3015;51.390;12.256;2022-11-11T03:58:16;6.20;;;5.60;;
5977;SDS011;3015;51.390;12.256;2022-11-11T04:00:42;7.95;;;5.93;;
5977;SDS011;3015;51.390;12.256;2022-11-11T04:03:16;6.38;;;5.78;;
5977;SDS011;3015;51.390;12.256;2022-11-11T04:06:01;8.07;;;5.68;;
5977;SDS011;3015;51.390;12.256;2022-11-11T04:08:46;7.90;;;6.47;;
5977;SDS011;3015;51.390;12.256;2022-11-11T04:11:34;8.18;;;6.55;;
5977;SDS011;3015;51.390;12.256;2022-11-11T04:14:03;7.97;;;6.80;;
5977;SDS011;3015;51.390;12.256;2022-11-11T04:16:53;7.47;;;6.20;;
5977;SDS011;3015;51.390;12.256;2022-11-11T04:19:19;7.22;;;6.05;;
5977;SDS011;3015;51.390;12.256;2022-11-11T04:22:03;6.85;;;5.82;;
5977;SDS011;3015;51.390;12.256;2022-11-11T04:24:29;6.53;;;5.50;;
5977;SDS011;3015;51.390;12.256;2022-11-11T04:27:15;8.20;;;6.35;;
5977;SDS011;3015;51.390;12.256;2022-11-11T04:29:43;7.15;;;6.45;;
5977;SDS011;3015;51.390;12.256;2022-11-11T04:32:11;5.93;;;4.90;;
5977;SDS011;3015;51.390;12.256;2022-11-11T04:34:58;5.93;;;5.43;;
5977;SDS011;3015;51.390;12.256;2022-11-11T04:37:26;7.60;;;5.45;;
5977;SDS011;3015;51.390;12.256;2022-11-11T04:39:55;8.32;;;6.30;;
5977;SDS011;3015;51.390;12.256;2022-11-11T04:42:39;6.18;;;5.57;;
5977;SDS011;3015;51.390;12.256;2022-11-11T04:45:05;6.50;;;5.90;;
5977;SDS011;3015;51.390;12.256;2022-11-11T04:48:08;8.02;;;5.22;;
5977;SDS011;3015;51.390;12.256;2022-11-11T04:50:38;7.97;;;6.28;;
5977;SDS011;3015;51.390;12.256;2022-11-11T04:53:07;9.52;;;6.68;;
5977;SDS011;3015;51.390;12.256;2022-11-11T04:55:35;12.57;;;6.68;;
5977;SDS011;3015;51.390;12.256;2022-11-11T04:58:20;8.25;;;6.60;;
5977;SDS011;3015;51.390;12.256;2022-11-11T05:00:46;9.32;;;6.63;;
5977;SDS011;3015;51.390;12.256;2022-11-11T05:03:13;8.10;;;6.80;;
5977;SDS011;3015;51.390;12.256;2022-11-11T05:05:52;6.53;;;5.68;;
5977;SDS011;3015;51.390;12.256;2022-11-11T05:08:41;8.38;;;5.80;;
5977;SDS011;3015;51.390;12.256;2022-11-11T05:11:27;8.73;;;6.32;;
5977;SDS011;3015;51.390;12.256;2022-11-11T05:13:53;11.65;;;7.85;;
5977;SDS011;3015;51.390;12.256;2022-11-11T05:16:40;8.95;;;6.05;;
5977;SDS011;3015;51.390;12.256;2022-11-11T05:19:27;6.82;;;5.82;;
5977;SDS011;3015;51.390;12.256;2022-11-11T05:24:53;8.15;;;6.88;;
5977;SDS011;3015;51.390;12.256;2022-11-11T05:27:38;8.70;;;6.53;;
5977;SDS011;3015;51.390;12.256;2022-11-11T05:30:04;7.57;;;6.87;;
5977;SDS011;3015;51.390;12.256;2022-11-11T05:32:30;9.00;;;6.18;;
5977;SDS011;3015;51.390;12.256;2022-11-11T05:34:56;7.40;;;6.13;;
5977;SDS011;3015;51.390;12.256;2022-11-11T05:37:21;6.30;;;5.80;;
5977;SDS011;3015;51.390;12.256;2022-11-11T05:39:47;8.80;;;6.73;;
5977;SDS011;3015;51.390;12.256;2022-11-11T05:42:13;10.07;;;6.57;;
5977;SDS011;3015;51.390;12.256;2022-11-11T05:44:39;7.40;;;6.20;;
5977;SDS011;3015;51.390;12.256;2022-11-11T05:47:04;6.53;;;5.73;;
5977;SDS011;3015;51.390;12.256;2022-11-11T05:49:30;7.17;;;6.57;;
5977;SDS011;3015;51.390;12.256;2022-11-11T05:51:56;9.67;;;6.90;;
5977;SDS011;3015;51.390;12.256;2022-11-11T05:54:22;7.60;;;6.37;;
5977;SDS011;3015;51.390;12.256;2022-11-11T05:56:47;7.83;;;7.10;;
5977;SDS011;3015;51.390;12.256;2022-11-11T05:59:13;6.72;;;6.13;;
5977;SDS011;3015;51.390;12.256;2022-11-11T06:01:39;8.10;;;6.50;;
5977;SDS011;3015;51.390;12.256;2022-11-11T06:04:05;10.13;;;6.80;;
5977;SDS011;3015;51.390;12.256;2022-11-11T06:06:32;7.85;;;5.95;;
5977;SDS011;3015;51.390;12.256;2022-11-11T06:08:58;8.02;;;6.20;;
5977;SDS011;3015;51.390;12.256;2022-11-11T06:11:24;9.47;;;6.77;;
5977;SDS011;3015;51.390;12.256;2022-11-11T06:13:51;9.75;;;6.40;;
5977;SDS011;3015;51.390;12.256;2022-11-11T06:16:17;7.93;;;5.90;;
5977;SDS011;3015;51.390;12.256;2022-11-11T06:18:43;10.37;;;5.67;;
5977;SDS011;3015;51.390;12.256;2022-11-11T06:21:08;9.70;;;7.30;;
5977;SDS011;3015;51.390;12.256;2022-11-11T06:23:34;7.97;;;5.70;;
5977;SDS011;3015;51.390;12.256;2022-11-11T06:26:00;10.20;;;7.30;;
5977;SDS011;3015;51.390;12.256;2022-11-11T06:28:48;8.35;;;5.35;;
5977;SDS011;3015;51.390;12.256;2022-11-11T06:31:19;6.35;;;5.80;;
5977;SDS011;3015;51.390;12.256;2022-11-11T06:33:49;6.18;;;5.68;;
5977;SDS011;3015;51.390;12.256;2022-11-11T06:36:16;8.07;;;5.05;;
5977;SDS011;3015;51.390;12.256;2022-11-11T06:38:42;9.10;;;6.43;;
5977;SDS011;3015;51.390;12.256;2022-11-11T06:41:08;9.07;;;5.53;;
5977;SDS011;3015;51.390;12.256;2022-11-11T06:43:37;7.10;;;5.55;;
5977;SDS011;3015;51.390;12.256;2022-11-11T06:46:06;8.13;;;5.50;;
5977;SDS011;3015;51.390;12.256;2022-11-11T06:48:37;10.82;;;6.50;;
5977;SDS011;3015;51.390;12.256;2022-11-11T06:51:06;6.53;;;5.65;;
5977;SDS011;3015;51.390;12.256;2022-11-11T06:53:32;5.63;;;5.13;;
5977;SDS011;3015;51.390;12.256;2022-11-11T06:55:57;5.73;;;5.07;;
5977;SDS011;3015;51.390;12.256;2022-11-11T06:58:23;6.13;;;5.53;;
5977;SDS011;3015;51.390;12.256;2022-11-11T07:00:49;5.60;;;5.10;;
5977;SDS011;3015;51.390;12.256;2022-11-11T07:03:16;9.33;;;6.80;;
5977;SDS011;3015;51.390;12.256;2022-11-11T07:05:43;7.20;;;5.10;;
5977;SDS011;3015;51.390;12.256;2022-11-11T07:08:10;6.13;;;5.15;;
5977;SDS011;3015;51.390;12.256;2022-11-11T07:10:39;6.38;;;5.72;;
5977;SDS011;3015;51.390;12.256;2022-11-11T07:13:07;5.93;;;5.43;;
5977;SDS011;3015;51.390;12.256;2022-11-11T07:15:33;7.40;;;5.13;;
5977;SDS011;3015;51.390;12.256;2022-11-11T07:17:59;5.82;;;5.32;;
5977;SDS011;3015;51.390;12.256;2022-11-11T07:20:25;5.50;;;5.00;;
5977;SDS011;3015;51.390;12.256;2022-11-11T07:22:51;9.60;;;5.37;;
5977;SDS011;3015;51.390;12.256;2022-11-11T07:25:16;6.43;;;5.73;;
5977;SDS011;3015;51.390;12.256;2022-11-11T07:27:42;5.37;;;4.87;;
5977;SDS011;3015;51.390;12.256;2022-11-11T07:30:08;5.13;;;4.73;;
5977;SDS011;3015;51.390;12.256;2022-11-11T07:32:35;6.35;;;4.60;;
5977;SDS011;3015;51.390;12.256;2022-11-11T07:35:01;5.67;;;5.00;;
5977;SDS011;3015;51.390;12.256;2022-11-11T07:37:29;5.07;;;4.68;;
5977;SDS011;3015;51.390;12.256;2022-11-11T07:39:54;8.95;;;5.30;;
5977;SDS011;3015;51.390;12.256;2022-11-11T07:42:20;6.90;;;4.70;;
5977;SDS011;3015;51.390;12.256;2022-11-11T07:44:45;5.03;;;4.53;;
5977;SDS011;3015;51.390;12.256;2022-11-11T07:47:11;6.07;;;4.70;;
5977;SDS011;3015;51.390;12.256;2022-11-11T07:49:37;8.60;;;4.03;;
5977;SDS011;3015;51.390;12.256;2022-11-11T07:52:02;5.23;;;4.73;;
5977;SDS011;3015;51.390;12.256;2022-11-11T07:54:28;9.93;;;4.93;;
5977;SDS011;3015;51.390;12.256;2022-11-11T07:56:54;8.50;;;4.80;;
5977;SDS011;3015;51.390;12.256;2022-11-11T07:59:19;4.93;;;4.43;;
5977;SDS011;3015;51.390;12.256;2022-11-11T08:01:45;7.83;;;4.53;;
5977;SDS011;3015;51.390;12.256;2022-11-11T08:04:10;5.07;;;4.57;;
5977;SDS011;3015;51.390;12.256;2022-11-11T08:06:36;5.10;;;4.67;;
5977;SDS011;3015;51.390;12.256;2022-11-11T08:09:02;7.60;;;5.10;;
5977;SDS011;3015;51.390;12.256;2022-11-11T08:11:27;5.13;;;4.73;;
5977;SDS011;3015;51.390;12.256;2022-11-11T08:14:11;7.40;;;5.07;;
5977;SDS011;3015;51.390;12.256;2022-11-11T08:16:37;6.60;;;5.50;;
5977;SDS011;3015;51.390;12.256;2022-11-11T08:19:03;4.77;;;4.30;;
5977;SDS011;3015;51.390;12.256;2022-11-11T08:21:28;5.97;;;4.23;;
5977;SDS011;3015;51.390;12.256;2022-11-11T08:23:54;5.30;;;4.00;;
5977;SDS011;3015;51.390;12.256;2022-11-11T08:26:20;5.63;;;4.77;;
5977;SDS011;3015;51.390;12.256;2022-11-11T08:28:47;5.32;;;4.55;;
5977;SDS011;3015;51.390;12.256;2022-11-11T08:31:13;5.15;;;4.65;;
5977;SDS011;3015;51.390;12.256;2022-11-11T08:33:39;9.03;;;4.50;;
5977;SDS011;3015;51.390;12.256;2022-11-11T08:36:05;5.07;;;4.50;;
5977;SDS011;3015;51.390;12.256;2022-11-11T08:38:32;6.20;;;4.45;;
5977;SDS011;3015;51.390;12.256;2022-11-11T08:41:01;3.85;;;3.05;;
5977;SDS011;3015;51.390;12.256;2022-11-11T08:43:28;4.85;;;3.40;;
5977;SDS011;3015;51.390;12.256;2022-11-11T08:45:56;4.40;;;3.45;;
5977;SDS011;3015;51.390;12.256;2022-11-11T08:48:23;5.05;;;3.72;;
5977;SDS011;3015;51.390;12.256;2022-11-11T08:50:50;4.00;;;3.70;;
5977;SDS011;3015;51.390;12.256;2022-11-11T08:53:16;4.30;;;3.90;;
5977;SDS011;3015;51.390;12.256;2022-11-11T08:55:42;4.90;;;4.32;;
5977;SDS011;3015;51.390;12.256;2022-11-11T08:58:08;4.00;;;3.70;;
5977;SDS011;3015;51.390;12.256;2022-11-11T09:00:34;6.15;;;3.88;;
5977;SDS011;3015;51.390;12.256;2022-11-11T09:03:04;4.50;;;3.77;;
5977;SDS011;3015;51.390;12.256;2022-11-11T09:05:31;4.60;;;4.20;;
5977;SDS011;3015;51.390;12.256;2022-11-11T09:08:01;3.90;;;3.50;;
5977;SDS011;3015;51.390;12.256;2022-11-11T09:10:30;7.03;;;3.88;;
5977;SDS011;3015;51.390;12.256;2022-11-11T09:12:56;4.40;;;4.00;;
5977;SDS011;3015;51.390;12.256;2022-11-11T09:15:23;6.53;;;4.30;;
5977;SDS011;3015;51.390;12.256;2022-11-11T09:17:48;4.60;;;3.60;;
5977;SDS011;3015;51.390;12.256;2022-11-11T09:20:14;6.33;;;4.07;;
5977;SDS011;3015;51.390;12.256;2022-11-11T09:22:41;4.07;;;3.70;;
5977;SDS011;3015;51.390;12.256;2022-11-11T09:25:07;3.28;;;3.08;;
5977;SDS011;3015;51.390;12.256;2022-11-11T09:27:33;7.22;;;3.88;;
5977;SDS011;3015;51.390;12.256;2022-11-11T09:29:59;4.35;;;2.97;;
5977;SDS011;3015;51.390;12.256;2022-11-11T09:32:25;3.43;;;3.00;;
5977;SDS011;3015;51.390;12.256;2022-11-11T09:34:51;3.40;;;3.10;;
5977;SDS011;3015;51.390;12.256;2022-11-11T09:37:19;3.63;;;2.90;;
5977;SDS011;3015;51.390;12.256;2022-11-11T09:39:45;3.90;;;3.60;;
5977;SDS011;3015;51.390;12.256;2022-11-11T09:50:50;3.70;;;3.37;;
5977;SDS011;3015;51.390;12.256;2022-11-11T09:53:29;6.97;;;5.00;;
5977;SDS011;3015;51.390;12.256;2022-11-11T09:56:05;4.05;;;3.25;;
5977;SDS011;3015;51.390;12.256;2022-11-11T09:58:37;3.40;;;3.17;;
5977;SDS011;3015;51.390;12.256;2022-11-11T10:01:16;3.65;;;3.35;;
5977;SDS011;3015;51.390;12.256;2022-11-11T10:06:54;5.18;;;3.38;;
5977;SDS011;3015;51.390;12.256;2022-11-11T10:14:36;5.03;;;3.38;;
5977;SDS011;3015;51.390;12.256;2022-11-11T10:22:35;4.17;;;2.70;;
5977;SDS011;3015;51.390;12.256;2022-11-11T10:27:36;6.43;;;3.63;;
5977;SDS011;3015;51.390;12.256;2022-11-11T10:30:39;5.63;;;4.83;;
5977;SDS011;3015;51.390;12.256;2022-11-11T10:33:07;2.63;;;2.40;;
5977;SDS011;3015;51.390;12.256;2022-11-11T10:35:38;2.20;;;2.10;;
5977;SDS011;3015;51.390;12.256;2022-11-11T10:43:45;3.47;;;2.90;;
5977;SDS011;3015;51.390;12.256;2022-11-11T10:46:25;4.60;;;2.40;;
5977;SDS011;3015;51.390;12.256;2022-11-11T10:49:16;4.00;;;2.63;;
5977;SDS011;3015;51.390;12.256;2022-11-11T10:51:47;4.23;;;2.93;;
5977;SDS011;3015;51.390;12.256;2022-11-11T10:54:19;5.30;;;3.00;;
5977;SDS011;3015;51.390;12.256;2022-11-11T10:56:59;5.10;;;2.37;;
5977;SDS011;3015;51.390;12.256;2022-11-11T10:59:43;5.67;;;3.53;;
5977;SDS011;3015;51.390;12.256;2022-11-11T11:02:18;3.33;;;3.03;;
5977;SDS011;3015;51.390;12.256;2022-11-11T11:07:13;6.20;;;2.60;;
5977;SDS011;3015;51.390;12.256;2022-11-11T11:09:49;3.00;;;2.73;;
5977;SDS011;3015;51.390;12.256;2022-11-11T11:12:38;3.77;;;2.80;;
5977;SDS011;3015;51.390;12.256;2022-11-11T11:15:10;2.27;;;2.07;;
5977;SDS011;3015;51.390;12.256;2022-11-11T11:17:43;2.70;;;2.50;;
5977;SDS011;3015;51.390;12.256;2022-11-11T11:20:21;2.73;;;2.53;;
5977;SDS011;3015;51.390;12.256;2022-11-11T11:22:48;2.40;;;2.17;;
5977;SDS011;3015;51.390;12.256;2022-11-11T11:25:16;4.87;;;2.40;;
5977;SDS011;3015;51.390;12.256;2022-11-11T11:27:42;4.27;;;2.70;;
5977;SDS011;3015;51.390;12.256;2022-11-11T11:30:09;2.63;;;2.43;;
5977;SDS011;3015;51.390;12.256;2022-11-11T11:32:37;2.30;;;2.10;;
5977;SDS011;3015;51.390;12.256;2022-11-11T11:35:06;2.53;;;2.33;;
5977;SDS011;3015;51.390;12.256;2022-11-11T11:37:33;7.23;;;2.03;;
5977;SDS011;3015;51.390;12.256;2022-11-11T11:40:13;3.27;;;2.30;;
5977;SDS011;3015;51.390;12.256;2022-11-11T11:42:39;3.70;;;2.43;;
5977;SDS011;3015;51.390;12.256;2022-11-11T11:45:14;2.10;;;2.00;;
5977;SDS011;3015;51.390;12.256;2022-11-11T11:55:34;3.87;;;2.23;;
5977;SDS011;3015;51.390;12.256;2022-11-11T11:58:19;2.10;;;2.00;;
5977;SDS011;3015;51.390;12.256;2022-11-11T12:01:04;2.20;;;1.90;;
5977;SDS011;3015;51.390;12.256;2022-11-11T12:03:41;2.50;;;2.30;;
5977;SDS011;3015;51.390;12.256;2022-11-11T12:12:02;1.87;;;1.77;;
5977;SDS011;3015;51.390;12.256;2022-11-11T12:14:45;3.70;;;2.20;;
5977;SDS011;3015;51.390;12.256;2022-11-11T12:17:34;4.70;;;1.90;;
5977;SDS011;3015;51.390;12.256;2022-11-11T12:28:46;2.27;;;2.07;;
5977;SDS011;3015;51.390;12.256;2022-11-11T12:31:40;1.73;;;1.63;;
5977;SDS011;3015;51.390;12.256;2022-11-11T12:45:30;2.03;;;1.83;;
5977;SDS011;3015;51.390;12.256;2022-11-11T12:53:57;3.97;;;2.10;;
5977;SDS011;3015;51.390;12.256;2022-11-11T12:56:48;1.90;;;1.80;;
5977;SDS011;3015;51.390;12.256;2022-11-11T13:02:32;2.50;;;2.20;;
5977;SDS011;3015;51.390;12.256;2022-11-11T13:07:51;1.90;;;1.80;;
5977;SDS011;3015;51.390;12.256;2022-11-11T13:10:32;1.73;;;1.63;;
5977;SDS011;3015;51.390;12.256;2022-11-11T13:13:34;2.00;;;1.60;;
5977;SDS011;3015;51.390;12.256;2022-11-11T13:16:09;2.70;;;2.00;;
5977;SDS011;3015;51.390;12.256;2022-11-11T13:18:46;2.63;;;2.00;;
5977;SDS011;3015;51.390;12.256;2022-11-11T13:21:14;2.53;;;2.33;;
5977;SDS011;3015;51.390;12.256;2022-11-11T13:23:50;2.33;;;2.13;;
5977;SDS011;3015;51.390;12.256;2022-11-11T13:28:48;2.30;;;1.60;;
5977;SDS011;3015;51.390;12.256;2022-11-11T13:31:30;2.50;;;2.30;;
5977;SDS011;3015;51.390;12.256;2022-11-11T13:34:02;2.13;;;1.90;;
5977;SDS011;3015;51.390;12.256;2022-11-11T13:36:38;1.83;;;1.73;;
5977;SDS011;3015;51.390;12.256;2022-11-11T13:39:17;1.83;;;1.73;;
5977;SDS011;3015;51.390;12.256;2022-11-11T13:41:49;2.50;;;1.90;;
5977;SDS011;3015;51.390;12.256;2022-11-11T13:44:25;2.00;;;1.80;;
5977;SDS011;3015;51.390;12.256;2022-11-11T13:46:58;2.10;;;2.00;;
5977;SDS011;3015;51.390;12.256;2022-11-11T13:49:33;4.87;;;1.83;;
5977;SDS011;3015;51.390;12.256;2022-11-11T13:52:05;1.73;;;1.63;;
5977;SDS011;3015;51.390;12.256;2022-11-11T13:55:02;1.83;;;1.73;;
5977;SDS011;3015;51.390;12.256;2022-11-11T13:57:48;2.00;;;1.90;;
5977;SDS011;3015;51.390;12.256;2022-11-11T14:02:41;3.53;;;2.13;;
5977;SDS011;3015;51.390;12.256;2022-11-11T14:10:07;2.07;;;1.93;;
5977;SDS011;3015;51.390;12.256;2022-11-11T14:12:36;4.30;;;2.80;;
5977;SDS011;3015;51.390;12.256;2022-11-11T14:20:52;2.37;;;2.17;;
5977;SDS011;3015;51.390;12.256;2022-11-11T14:37:08;2.60;;;2.50;;
5977;SDS011;3015;51.390;12.256;2022-11-11T14:39:53;2.60;;;2.27;;
5977;SDS011;3015;51.390;12.256;2022-11-11T14:45:01;7.77;;;3.60;;
5977;SDS011;3015;51.390;12.256;2022-11-11T14:47:36;4.10;;;3.50;;
5977;SDS011;3015;51.390;12.256;2022-11-11T14:50:39;2.90;;;2.70;;
5977;SDS011;3015;51.390;12.256;2022-11-11T14:52:51;2.83;;;2.63;;
5977;SDS011;3015;51.390;12.256;2022-11-11T14:55:24;4.07;;;2.23;;
5977;SDS011;3015;51.390;12.256;2022-11-11T15:00:42;2.83;;;2.27;;
5977;SDS011;3015;51.390;12.256;2022-11-11T15:03:14;2.53;;;2.33;;
5977;SDS011;3015;51.390;12.256;2022-11-11T15:05:49;5.10;;;3.83;;
5977;SDS011;3015;51.390;12.256;2022-11-11T15:11:32;4.07;;;2.03;;
5977;SDS011;3015;51.390;12.256;2022-11-11T15:16:54;2.60;;;2.30;;
5977;SDS011;3015;51.390;12.256;2022-11-11T15:30:23;2.90;;;2.70;;
5977;SDS011;3015;51.390;12.256;2022-11-11T15:37:54;3.87;;;3.00;;
5977;SDS011;3015;51.390;12.256;2022-11-11T15:40:25;4.40;;;2.60;;
5977;SDS011;3015;51.390;12.256;2022-11-11T15:42:52;3.08;;;2.88;;
5977;SDS011;3015;51.390;12.256;2022-11-11T15:47:44;3.30;;;3.00;;
5977;SDS011;3015;51.390;12.256;2022-11-11T15:52:55;3.50;;;3.25;;
5977;SDS011;3015;51.390;12.256;2022-11-11T15:55:26;3.10;;;2.90;;
5977;SDS011;3015;51.390;12.256;2022-11-11T15:57:54;2.50;;;2.30;;
5977;SDS011;3015;51.390;12.256;2022-11-11T16:00:31;4.40;;;2.10;;
5977;SDS011;3015;51.390;12.256;2022-11-11T16:02:57;2.53;;;2.00;;
5977;SDS011;3015;51.390;12.256;2022-11-11T16:05:24;2.53;;;2.33;;
5977;SDS011;3015;51.390;12.256;2022-11-11T16:07:55;2.60;;;2.40;;
5977;SDS011;3015;51.390;12.256;2022-11-11T16:12:56;2.17;;;2.08;;
5977;SDS011;3015;51.390;12.256;2022-11-11T16:15:42;3.22;;;2.92;;
5977;SDS011;3015;51.390;12.256;2022-11-11T16:18:16;2.97;;;2.22;;
5977;SDS011;3015;51.390;12.256;2022-11-11T16:20:49;3.10;;;2.58;;
5977;SDS011;3015;51.390;12.256;2022-11-11T16:23:16;2.97;;;2.78;;
5977;SDS011;3015;51.390;12.256;2022-11-11T16:25:44;3.25;;;2.95;;
5977;SDS011;3015;51.390;12.256;2022-11-11T16:28:13;3.38;;;3.17;;
5977;SDS011;3015;51.390;12.256;2022-11-11T16:30:39;3.67;;;3.38;;
5977;SDS011;3015;51.390;12.256;2022-11-11T16:33:16;3.57;;;2.70;;
5977;SDS011;3015;51.390;12.256;2022-11-11T16:35:45;3.42;;;3.22;;
5977;SDS011;3015;51.390;12.256;2022-11-11T16:38:11;2.50;;;2.30;;
5977;SDS011;3015;51.390;12.256;2022-11-11T16:40:55;3.30;;;3.10;;
5977;SDS011;3015;51.390;12.256;2022-11-11T16:43:33;3.33;;;2.70;;
5977;SDS011;3015;51.390;12.256;2022-11-11T16:46:07;4.53;;;3.63;;
5977;SDS011;3015;51.390;12.256;2022-11-11T16:48:40;2.95;;;2.75;;
5977;SDS011;3015;51.390;12.256;2022-11-11T16:51:14;3.35;;;3.15;;
5977;SDS011;3015;51.390;12.256;2022-11-11T16:53:51;3.53;;;3.15;;
5977;SDS011;3015;51.390;12.256;2022-11-11T16:56:32;4.78;;;3.53;;
5977;SDS011;3015;51.390;12.256;2022-11-11T16:59:08;4.07;;;3.15;;
5977;SDS011;3015;51.390;12.256;2022-11-11T17:01:40;3.15;;;2.95;;
5977;SDS011;3015;51.390;12.256;2022-11-11T17:04:07;3.00;;;2.80;;
5977;SDS011;3015;51.390;12.256;2022-11-11T17:06:52;3.70;;;3.30;;
5977;SDS011;3015;51.390;12.256;2022-11-11T17:09:34;3.33;;;3.03;;
5977;SDS011;3015;51.390;12.256;2022-11-11T17:12:02;4.20;;;3.28;;
5977;SDS011;3015;51.390;12.256;2022-11-11T17:14:29;2.83;;;2.65;;
5977;SDS011;3015;51.390;12.256;2022-11-11T17:16:58;5.10;;;3.10;;
5977;SDS011;3015;51.390;12.256;2022-11-11T17:19:24;3.70;;;3.40;;
5977;SDS011;3015;51.390;12.256;2022-11-11T17:21:50;3.20;;;2.90;;
5977;SDS011;3015;51.390;12.256;2022-11-11T17:24:16;5.43;;;3.40;;
5977;SDS011;3015;51.390;12.256;2022-11-11T17:26:41;3.83;;;3.60;;
5977;SDS011;3015;51.390;12.256;2022-11-11T17:29:07;2.80;;;2.60;;
5977;SDS011;3015;51.390;12.256;2022-11-11T17:31:35;3.08;;;2.88;;
5977;SDS011;3015;51.390;12.256;2022-11-11T17:34:06;3.10;;;2.90;;
5977;SDS011;3015;51.390;12.256;2022-11-11T17:36:32;3.03;;;2.83;;
5977;SDS011;3015;51.390;12.256;2022-11-11T17:38:58;4.90;;;3.20;;
5977;SDS011;3015;51.390;12.256;2022-11-11T17:41:23;3.87;;;3.57;;
5977;SDS011;3015;51.390;12.256;2022-11-11T17:43:49;3.43;;;3.13;;
5977;SDS011;3015;51.390;12.256;2022-11-11T17:46:14;3.93;;;3.63;;
5977;SDS011;3015;51.390;12.256;2022-11-11T17:48:40;4.40;;;3.30;;
5977;SDS011;3015;51.390;12.256;2022-11-11T17:51:06;3.40;;;3.10;;
5977;SDS011;3015;51.390;12.256;2022-11-11T17:53:35;3.33;;;3.00;;
5977;SDS011;3015;51.390;12.256;2022-11-11T17:56:04;4.25;;;3.85;;